Portada
METAR-TAF:

METAR-TAF

Aeropuertos :

Aeropuerto de Bari-Palese

Bari, Italia

latitud: 41-08N, longitud: 016-47E, altitud: 34 m

Observación

El informe se hizo hace 23 minutos, a las 03:50 UTC
Viento 5 kt del suroeste
Temperatura 6°C
Humedad 87%
Presión 1015 hPa
Visibilidad 10 km o más
sin nubes por debajo de 1500 m y sin presencia de cumulonimbus.

METAR: LIBD 250350Z 22005KT CAVOK 06/04 Q1015

Hora: 05:13 (04:13 UTC)

Pronóstico

El informe se hizo hace 5 horas y 13 minutos, a las 23:00 UTC
Pronóstico válido del 25 a las 00 UTC al 25 a las 24 UTC
Viento 5 kt con dirección variable
Visibilidad 10 km o más
sin nubes por debajo de 1500 m y sin presencia de cumulonimbus.
Evolucionando progresivamente
del 25 a las 07 UTC al 25 a las 09 UTC
Viento 12 kt del sur-suroeste

TAF: LIBD 242300Z 2500/2524 VRB05KT CAVOK BECMG 2507/2509 20012KT

Observaciones y pronósticos meteorológicos de más de 4000 aeropuertos (mensajes METAR y TAF).

Los puntos amarillos y rojos representan las estaciones disponibles.

Ponga el ratón en el punto deseado para ver el nombre de la estación.

Haga clic para ver las observaciones y los pronósticos meteorológicos.

Para cambiar el mapa : haga clic en los botones verdes con una cruz de color negro para hacer un zoom, en el botón verde con un guión para alejar o en las flechas verdes para mapas adyacentes.


METAR-TAF: